Terminal Aerodrome Forecast
Issued by NWS Jackson, KY

Home | Current Version | Previous Version | Text Only | Print | Product List | Glossary On
Versions: 1 2 3 4 5 6 7 8 9 10 11 12 13 14 15 16 17 18 19
000
FTUS43 KJKL 051120
TAFJKL
TAF
KJKL 051120Z 0512/0612 00000KT 1 1/2SM -SHRA BR OVC022
     FM051400 VRB03KT P6SM OVC025
     FM051700 VRB03KT P6SM OVC035
     FM052300 31006KT 6SM -SHRA OVC025=

USA.gov is the U.S. government's official web portal to all federal, state and local government web resources and services.